BKO weather

Modibo Keita International Airport
Bamako, Koulikoro Region, Mali

Public forecast

Using degrees Celsius for public forecast. Weather courtesy of forecast.io.

Current aviation weather report (METAR) for Modibo Keita International Airport

Retrieved 2020/02/24 17:30 UTC (26 minutes ago):

GABS 241730Z 10009KT 070V130 CAVOK 36/M02 Q1011 NOSIG

Aviation forecast (TAF) for Modibo Keita International Airport

Retrieved 2020/02/24 12:00 UTC (6 hours ago):

TAF GABS 241100Z 2412/2518 08012G22KT 8000 NSC PROB40 TEMPO 2412/2418 4000 DU